createdAt,value
2023-02-09T00:00:13.195Z,21.07
2023-02-09T00:02:41.221Z,23.33
2023-02-09T00:05:09.450Z,23.97
2023-02-09T00:07:36.378Z,20.83
2023-02-09T00:10:04.926Z,21.93
2023-02-09T00:12:50.349Z,23.63
2023-02-09T00:15:17.214Z,22.30
2023-02-09T00:17:43.997Z,22.23
2023-02-09T00:20:11.219Z,23.10
2023-02-09T00:22:38.091Z,22.23
2023-02-09T00:25:05.110Z,21.63
2023-02-09T00:27:35.445Z,23.60
2023-02-09T00:30:02.521Z,22.63
2023-02-09T00:32:31.038Z,22.83
2023-02-09T00:34:57.967Z,22.13
2023-02-09T00:37:24.750Z,22.33
2023-02-09T00:39:51.601Z,23.70
2023-02-09T00:42:18.482Z,21.40
2023-02-09T00:44:46.022Z,26.90
2023-02-09T00:47:12.969Z,22.53
2023-02-09T00:49:40.182Z,21.63
2023-02-09T00:52:09.752Z,21.47
2023-02-09T00:54:37.010Z,21.60
2023-02-09T00:57:05.512Z,22.70
2023-02-09T00:59:34.361Z,20.90
2023-02-09T01:02:01.673Z,20.30
2023-02-09T01:04:28.559Z,21.10
2023-02-09T01:06:55.328Z,20.23
2023-02-09T01:09:22.139Z,20.97
2023-02-09T01:11:49.154Z,19.27
2023-02-09T01:14:16.476Z,23.07
2023-02-09T01:16:43.588Z,22.10
2023-02-09T01:19:13.188Z,20.83
2023-02-09T01:21:40.456Z,22.43
2023-02-09T01:24:07.334Z,20.60
2023-02-09T01:26:34.224Z,21.90
2023-02-09T01:29:01.110Z,20.60
2023-02-09T01:31:42.038Z,19.57
2023-02-09T01:34:12.315Z,21.10
2023-02-09T01:36:39.338Z,20.40
2023-02-09T01:39:06.255Z,22.23
2023-02-09T01:41:34.139Z,22.70
2023-02-09T01:44:26.739Z,23.10
2023-02-09T01:46:53.639Z,24.73
2023-02-09T01:49:26.321Z,22.40
2023-02-09T01:51:55.997Z,23.23
2023-02-09T01:54:48.261Z,22.13
2023-02-09T01:57:20.269Z,22.10
2023-02-09T02:00:00.599Z,22.50
2023-02-09T02:02:27.543Z,19.73
2023-02-09T02:04:54.448Z,20.37
2023-02-09T02:07:41.098Z,21.40
2023-02-09T02:10:08.233Z,22.13
2023-02-09T02:12:36.968Z,20.83
2023-02-09T02:15:03.952Z,20.37
2023-02-09T02:17:45.531Z,20.43
2023-02-09T02:20:36.432Z,20.00
2023-02-09T02:23:12.256Z,20.47
2023-02-09T02:25:54.338Z,20.37
2023-02-09T02:28:49.067Z,21.50
2023-02-09T02:31:34.057Z,20.70
2023-02-09T02:34:19.697Z,21.57
2023-02-09T02:37:09.462Z,20.70
2023-02-09T02:39:44.517Z,23.53
2023-02-09T02:42:41.651Z,22.60
2023-02-09T02:45:14.098Z,22.23
2023-02-09T02:47:47.381Z,24.63
2023-02-09T02:50:18.971Z,22.50
2023-02-09T02:52:48.329Z,22.87
2023-02-09T02:55:19.424Z,22.03
2023-02-09T02:57:51.281Z,20.60
2023-02-09T03:00:32.933Z,21.97
2023-02-09T03:03:05.650Z,23.30
2023-02-09T03:05:33.238Z,24.07
2023-02-09T03:08:00.084Z,21.73
2023-02-09T03:10:34.704Z,21.07
2023-02-09T03:13:04.259Z,21.47
2023-02-09T03:19:36.951Z,21.90
2023-02-09T03:22:17.446Z,21.60
2023-02-09T03:24:55.333Z,22.20
2023-02-09T03:27:31.283Z,22.90
2023-02-09T03:30:01.244Z,21.90
2023-02-09T03:32:28.499Z,21.53
2023-02-09T03:34:56.092Z,23.43
2023-02-09T03:37:23.862Z,22.07
2023-02-09T03:39:50.638Z,21.50
2023-02-09T03:42:17.426Z,21.07
2023-02-09T03:44:44.189Z,20.17
2023-02-09T03:47:10.916Z,22.07
2023-02-09T03:49:39.821Z,20.03
2023-02-09T03:52:09.193Z,20.70
2023-02-09T03:54:36.026Z,21.30
2023-02-09T03:57:03.575Z,21.23
2023-02-09T03:59:30.590Z,20.90
2023-02-09T04:01:58.765Z,21.60
2023-02-09T04:04:26.239Z,20.33
2023-02-09T04:06:53.736Z,22.60
2023-02-09T04:09:20.746Z,21.57
2023-02-09T04:11:47.578Z,21.10
2023-02-09T04:14:14.752Z,21.37
2023-02-09T04:16:41.652Z,21.50
2023-02-09T04:19:09.634Z,20.20
2023-02-09T04:21:37.899Z,20.40
2023-02-09T04:24:05.844Z,20.63
2023-02-09T04:26:32.981Z,20.47
2023-02-09T04:28:59.831Z,21.30
2023-02-09T04:31:26.807Z,20.60
2023-02-09T04:33:53.686Z,21.93
2023-02-09T04:36:23.229Z,21.70
2023-02-09T04:38:50.397Z,20.30
2023-02-09T04:41:17.155Z,22.17
2023-02-09T04:43:45.404Z,18.43
2023-02-09T04:46:17.016Z,19.50
2023-02-09T04:48:44.405Z,20.47
2023-02-09T04:51:11.962Z,18.87
2023-02-09T04:53:38.776Z,20.30
2023-02-09T04:56:06.028Z,19.00
2023-02-09T04:58:51.368Z,18.73
2023-02-09T05:01:24.172Z,19.37
2023-02-09T05:03:52.078Z,18.63
2023-02-09T05:06:19.104Z,18.40
2023-02-09T05:08:46.301Z,18.10
2023-02-09T05:11:13.323Z,20.40
2023-02-09T05:13:40.180Z,19.20
2023-02-09T05:16:08.478Z,18.07
2023-02-09T05:18:35.790Z,20.30
2023-02-09T05:21:03.119Z,20.73
2023-02-09T05:23:30.034Z,17.23
2023-02-09T05:25:56.890Z,19.10
2023-02-09T05:28:25.280Z,20.37
2023-02-09T05:30:53.824Z,21.53
2023-02-09T05:33:25.078Z,21.47
2023-02-09T05:35:53.708Z,22.63
2023-02-09T05:38:20.458Z,21.80
2023-02-09T05:40:47.596Z,22.03
2023-02-09T05:43:14.579Z,20.30
2023-02-09T05:45:41.466Z,22.00
2023-02-09T05:48:08.365Z,21.70
2023-02-09T05:50:36.068Z,21.30
2023-02-09T05:53:03.078Z,20.67
2023-02-09T05:55:29.950Z,22.43
2023-02-09T05:57:56.862Z,21.47
2023-02-09T06:00:25.138Z,21.50
2023-02-09T06:02:52.016Z,24.80
2023-02-09T06:05:20.900Z,21.93
2023-02-09T06:07:48.500Z,23.83
2023-02-09T06:10:16.212Z,23.20
2023-02-09T06:12:42.942Z,22.37
2023-02-09T06:15:10.607Z,23.60
2023-02-09T06:17:37.663Z,22.20
2023-02-09T06:20:04.921Z,22.00
2023-02-09T06:22:31.817Z,22.40
2023-02-09T06:24:58.674Z,23.10
2023-02-09T06:27:25.693Z,21.57
2023-02-09T06:29:53.042Z,23.10
2023-02-09T06:32:19.862Z,24.50
2023-02-09T06:34:46.618Z,21.27
2023-02-09T06:37:13.339Z,23.23
2023-02-09T06:39:40.104Z,24.20
2023-02-09T06:42:06.865Z,25.23
2023-02-09T06:44:33.675Z,23.63
2023-02-09T06:47:00.405Z,24.43
2023-02-09T06:49:27.125Z,23.63
2023-02-09T06:51:54.058Z,25.37
2023-02-09T06:54:21.826Z,24.53
2023-02-09T06:56:48.905Z,24.40
2023-02-09T06:59:15.904Z,24.00
2023-02-09T07:01:42.881Z,22.77
2023-02-09T07:04:15.102Z,23.33
2023-02-09T07:06:41.906Z,23.40
2023-02-09T07:09:08.841Z,22.67
2023-02-09T07:11:35.860Z,23.80
2023-02-09T07:14:02.772Z,23.90
2023-02-09T07:16:29.613Z,23.07
2023-02-09T07:18:56.522Z,25.40
2023-02-09T07:21:23.812Z,22.10
2023-02-09T07:23:50.735Z,24.00
2023-02-09T07:26:18.373Z,25.33
2023-02-09T07:28:45.447Z,23.70
2023-02-09T07:31:14.115Z,24.70
2023-02-09T07:33:41.093Z,26.20
2023-02-09T07:36:10.577Z,23.67
2023-02-09T07:38:37.987Z,27.13
2023-02-09T07:41:06.607Z,26.43
2023-02-09T07:43:33.494Z,25.40
2023-02-09T07:46:05.939Z,26.03
2023-02-09T07:48:33.356Z,26.60
2023-02-09T07:51:00.726Z,28.17
2023-02-09T07:53:28.413Z,26.03
2023-02-09T07:55:55.281Z,25.70
2023-02-09T07:58:22.966Z,28.30
2023-02-09T08:00:50.987Z,28.20
2023-02-09T08:03:20.348Z,29.00
2023-02-09T08:06:04.308Z,28.77
2023-02-09T08:08:31.177Z,28.53
2023-02-09T08:10:59.479Z,28.43
2023-02-09T08:13:30.566Z,30.30
2023-02-09T08:16:02.887Z,29.23
2023-02-09T08:18:34.320Z,30.87
2023-02-09T08:21:01.199Z,31.23
2023-02-09T08:23:32.915Z,28.07
2023-02-09T08:26:02.871Z,30.80
2023-02-09T08:28:43.259Z,29.50
2023-02-09T08:31:18.961Z,30.27
2023-02-09T08:33:48.038Z,29.90
2023-02-09T08:36:16.179Z,29.73
2023-02-09T08:38:44.254Z,29.53
2023-02-09T08:41:13.998Z,30.90
2023-02-09T08:43:40.960Z,32.53
2023-02-09T08:46:13.224Z,32.23
2023-02-09T08:48:42.583Z,29.70
2023-02-09T08:51:11.186Z,30.97
2023-02-09T08:53:38.792Z,30.50
2023-02-09T08:56:06.081Z,30.27
2023-02-09T08:58:36.595Z,30.83
2023-02-09T09:01:03.623Z,32.80
2023-02-09T09:03:33.270Z,28.80
2023-02-09T09:06:05.720Z,31.20
2023-02-09T09:08:34.439Z,30.63
2023-02-09T09:11:01.396Z,29.30
2023-02-09T09:13:28.815Z,31.20
2023-02-09T09:15:56.023Z,29.73
2023-02-09T09:18:24.348Z,30.13
2023-02-09T09:20:52.313Z,31.37
2023-02-09T09:23:21.158Z,32.10
2023-02-09T09:25:48.472Z,30.27
2023-02-09T09:28:16.002Z,30.43
2023-02-09T09:30:42.907Z,31.93
2023-02-09T09:33:09.719Z,30.93
2023-02-09T09:35:36.537Z,30.70
2023-02-09T09:38:03.204Z,31.33
2023-02-09T09:40:33.013Z,30.90
2023-02-09T09:43:04.471Z,29.97
2023-02-09T09:45:35.291Z,29.73
2023-02-09T09:48:02.474Z,30.47
2023-02-09T09:50:39.216Z,29.77
2023-02-09T09:53:33.391Z,31.03
2023-02-09T09:56:04.135Z,29.70
2023-02-09T09:58:33.385Z,32.03
2023-02-09T10:01:00.318Z,30.63
2023-02-09T10:03:27.162Z,31.60
2023-02-09T10:05:58.958Z,31.90
2023-02-09T10:08:33.511Z,31.33
2023-02-09T10:11:07.414Z,30.87
2023-02-09T10:13:54.890Z,31.33
2023-02-09T10:16:26.604Z,31.10
2023-02-09T10:19:02.125Z,31.17
2023-02-09T10:21:31.231Z,30.50
2023-02-09T10:24:00.784Z,33.80
2023-02-09T10:26:36.653Z,29.40
2023-02-09T10:29:13.458Z,32.23
2023-02-09T10:31:47.455Z,30.17
2023-02-09T10:34:23.796Z,30.63
2023-02-09T10:36:55.789Z,30.93
2023-02-09T10:39:22.549Z,28.67
2023-02-09T10:41:52.482Z,30.43
2023-02-09T10:44:30.133Z,29.20
2023-02-09T10:47:23.430Z,29.27
2023-02-09T10:49:56.018Z,27.87
2023-02-09T10:52:25.018Z,29.10
2023-02-09T10:54:57.578Z,29.43
2023-02-09T10:57:38.971Z,30.07
2023-02-09T11:00:17.757Z,26.30
2023-02-09T11:02:52.105Z,27.40
2023-02-09T11:05:21.849Z,27.80
2023-02-09T11:08:19.394Z,27.60
2023-02-09T11:11:03.370Z,27.87
2023-02-09T11:13:32.346Z,27.40
2023-02-09T11:16:25.972Z,26.93
2023-02-09T11:19:18.342Z,25.33
2023-02-09T11:22:03.703Z,25.17
2023-02-09T11:24:45.605Z,25.07
2023-02-09T11:27:15.189Z,25.17
2023-02-09T11:29:59.328Z,26.30
2023-02-09T11:32:45.680Z,24.90
2023-02-09T11:35:18.743Z,27.40
2023-02-09T11:38:03.265Z,25.80
2023-02-09T11:40:53.309Z,26.70
2023-02-09T11:43:39.380Z,25.37
2023-02-09T11:46:16.957Z,26.20
2023-02-09T11:48:58.055Z,26.20
2023-02-09T11:51:26.731Z,24.33
2023-02-09T11:54:18.858Z,25.53
2023-02-09T11:56:49.962Z,25.80
2023-02-09T11:59:39.203Z,24.80
2023-02-09T12:02:27.581Z,23.87
2023-02-09T12:05:00.475Z,23.17
2023-02-09T12:07:49.168Z,21.93
2023-02-09T12:10:31.000Z,23.83
2023-02-09T12:13:01.839Z,22.50
2023-02-09T12:16:00.349Z,22.97
2023-02-09T12:18:33.242Z,22.90
2023-02-09T12:21:02.374Z,24.03
2023-02-09T12:23:45.257Z,22.23
2023-02-09T12:26:11.910Z,23.40
2023-02-09T12:28:43.595Z,24.87
2023-02-09T12:31:18.453Z,23.13
2023-02-09T12:33:45.251Z,24.57
2023-02-09T12:36:16.037Z,24.70
2023-02-09T12:38:54.671Z,24.03
2023-02-09T12:41:40.914Z,23.87
2023-02-09T12:44:31.255Z,26.00
2023-02-09T12:46:58.142Z,24.43
2023-02-09T12:49:27.519Z,25.90
2023-02-09T12:52:07.635Z,23.50
2023-02-09T12:54:52.150Z,24.77
2023-02-09T12:57:19.311Z,22.83
2023-02-09T13:00:00.855Z,24.57
2023-02-09T13:02:35.941Z,25.83
2023-02-09T13:05:11.731Z,25.80
2023-02-09T13:08:05.408Z,22.43
2023-02-09T13:10:41.198Z,26.27
2023-02-09T13:13:10.385Z,23.80
2023-02-09T13:16:09.066Z,26.43
2023-02-09T13:19:05.228Z,24.50
2023-02-09T13:21:43.797Z,23.70
2023-02-09T13:24:19.720Z,24.80
2023-02-09T13:26:58.211Z,24.40
2023-02-09T13:29:32.331Z,26.47
2023-02-09T13:32:15.710Z,24.80
2023-02-09T13:34:46.323Z,24.97
2023-02-09T13:37:29.476Z,23.10
2023-02-09T13:40:02.945Z,24.03
2023-02-09T13:42:35.227Z,24.53
2023-02-09T13:45:02.132Z,24.63
2023-02-09T13:47:29.182Z,23.60
2023-02-09T13:50:16.997Z,24.70
2023-02-09T13:52:43.850Z,23.57
2023-02-09T13:55:12.921Z,26.07
2023-02-09T13:57:42.628Z,24.70
2023-02-09T14:00:24.850Z,25.77
2023-02-09T14:02:56.977Z,25.40
2023-02-09T14:05:35.327Z,25.90
2023-02-09T14:08:02.957Z,25.27
2023-02-09T14:10:32.892Z,25.73
2023-02-09T14:13:29.146Z,25.07
2023-02-09T14:16:09.765Z,24.47
2023-02-09T14:18:50.395Z,26.63
2023-02-09T14:21:22.305Z,24.67
2023-02-09T14:24:07.356Z,25.60
2023-02-09T14:26:47.075Z,27.73
2023-02-09T14:29:31.977Z,27.20
2023-02-09T14:32:06.956Z,26.57
2023-02-09T14:34:40.350Z,26.50
2023-02-09T14:37:13.206Z,26.40
2023-02-09T14:40:01.392Z,27.37
2023-02-09T14:42:30.151Z,27.63
2023-02-09T14:44:56.882Z,28.87
2023-02-09T14:47:29.281Z,27.33
2023-02-09T14:49:58.243Z,26.20
2023-02-09T14:52:28.999Z,26.53
2023-02-09T14:55:00.672Z,27.77
2023-02-09T14:57:29.497Z,25.87
2023-02-09T14:59:56.524Z,25.63
2023-02-09T15:02:27.113Z,27.17
2023-02-09T15:04:54.910Z,28.80
2023-02-09T15:07:37.953Z,26.63
2023-02-09T15:10:07.941Z,26.20
2023-02-09T15:12:34.715Z,26.87
2023-02-09T15:15:02.329Z,28.93
2023-02-09T15:17:30.825Z,27.60
2023-02-09T15:19:58.616Z,29.20
2023-02-09T15:22:26.092Z,28.00
2023-02-09T15:24:54.576Z,28.73
2023-02-09T15:27:29.451Z,28.00
2023-02-09T15:29:59.081Z,26.80
2023-02-09T15:32:28.079Z,25.90
2023-02-09T15:34:54.973Z,28.13
2023-02-09T15:37:28.010Z,26.57
2023-02-09T15:40:01.620Z,26.83
2023-02-09T15:42:47.469Z,27.97
2023-02-09T15:45:38.276Z,26.13
2023-02-09T15:48:06.120Z,28.20
2023-02-09T15:50:34.481Z,27.10
2023-02-09T15:53:05.399Z,27.13
2023-02-09T15:55:32.515Z,27.40
2023-02-09T15:57:59.615Z,26.33
2023-02-09T16:00:29.321Z,27.20
2023-02-09T16:02:59.034Z,26.47
2023-02-09T16:05:28.306Z,25.10
2023-02-09T16:07:56.193Z,24.40
2023-02-09T16:10:29.069Z,25.00
2023-02-09T16:12:57.013Z,25.67
2023-02-09T16:15:25.658Z,24.43
2023-02-09T16:17:52.514Z,25.43
2023-02-09T16:20:20.417Z,25.17
2023-02-09T16:22:49.061Z,25.53
2023-02-09T16:25:22.980Z,23.70
2023-02-09T16:27:52.256Z,23.63
2023-02-09T16:30:26.606Z,26.40
2023-02-09T16:32:53.523Z,26.37
2023-02-09T16:35:22.348Z,26.77
2023-02-09T16:37:51.715Z,26.00
2023-02-09T16:40:30.031Z,25.77
2023-02-09T16:43:01.342Z,25.13
2023-02-09T16:45:30.493Z,26.40
2023-02-09T16:47:59.376Z,24.83
2023-02-09T16:50:35.951Z,24.07
2023-02-09T16:53:13.292Z,26.83
2023-02-09T16:55:43.019Z,26.07
2023-02-09T16:58:14.043Z,26.60
2023-02-09T17:00:43.662Z,26.03
2023-02-09T17:03:32.767Z,28.57
2023-02-09T17:06:01.572Z,28.97
2023-02-09T17:08:35.374Z,26.73
2023-02-09T17:11:03.890Z,25.10
2023-02-09T17:13:31.138Z,26.80
2023-02-09T17:16:01.905Z,27.40
2023-02-09T17:18:40.350Z,27.30
2023-02-09T17:21:14.434Z,27.00
2023-02-09T17:23:42.689Z,29.77
2023-02-09T17:26:17.820Z,27.17
2023-02-09T17:28:44.553Z,29.80
2023-02-09T17:31:22.297Z,30.20
2023-02-09T17:33:52.694Z,29.43
2023-02-09T17:36:28.867Z,28.57
2023-02-09T17:39:00.381Z,28.90
2023-02-09T17:41:40.843Z,31.07
2023-02-09T17:44:34.884Z,30.83
2023-02-09T17:47:07.354Z,30.73
2023-02-09T17:49:34.957Z,32.20
2023-02-09T17:52:01.879Z,31.00
2023-02-09T17:54:28.634Z,30.80
2023-02-09T17:56:55.358Z,31.43
2023-02-09T17:59:22.127Z,33.10
2023-02-09T18:01:55.150Z,30.87
2023-02-09T18:04:28.750Z,34.10
2023-02-09T18:06:57.768Z,32.43
2023-02-09T18:09:24.919Z,32.07
2023-02-09T18:11:51.974Z,31.47
2023-02-09T18:14:20.421Z,33.40
2023-02-09T18:16:47.860Z,32.43
2023-02-09T18:19:16.063Z,49.50
2023-02-09T18:21:55.151Z,97.80
2023-02-09T18:24:23.438Z,71.87
2023-02-09T18:26:53.544Z,61.17
2023-02-09T18:29:23.593Z,47.70
2023-02-09T18:31:51.180Z,40.00
2023-02-09T18:34:18.306Z,40.73
2023-02-09T18:36:47.365Z,39.83
2023-02-09T18:39:17.404Z,44.80
2023-02-09T18:41:46.313Z,40.63
2023-02-09T18:44:13.252Z,44.33
2023-02-09T18:46:42.668Z,42.90
2023-02-09T18:49:12.294Z,37.70
2023-02-09T18:51:39.103Z,41.47
2023-02-09T18:54:05.954Z,36.37
2023-02-09T18:56:32.873Z,37.37
2023-02-09T18:58:59.680Z,35.93
2023-02-09T19:01:26.548Z,35.97
2023-02-09T19:03:54.296Z,44.23
2023-02-09T19:06:22.158Z,53.90
2023-02-09T19:08:50.388Z,45.17
2023-02-09T19:11:20.080Z,45.10
2023-02-09T19:14:05.705Z,47.53
2023-02-09T19:16:32.933Z,49.20
2023-02-09T19:19:00.789Z,51.23
2023-02-09T19:21:28.530Z,48.37
2023-02-09T19:23:55.572Z,42.80
2023-02-09T19:26:22.568Z,42.57
2023-02-09T19:28:49.866Z,41.90
2023-02-09T19:31:17.503Z,44.20
2023-02-09T19:33:44.562Z,43.00
2023-02-09T19:36:11.497Z,40.30
2023-02-09T19:38:38.397Z,43.43
2023-02-09T19:41:12.405Z,38.30
2023-02-09T19:43:42.125Z,39.40
2023-02-09T19:46:10.328Z,42.03
2023-02-09T19:48:40.125Z,36.03
2023-02-09T19:51:08.237Z,41.60
2023-02-09T19:53:35.141Z,39.37
2023-02-09T19:56:05.191Z,38.90
2023-02-09T19:58:32.180Z,38.77
2023-02-09T20:00:59.018Z,38.10
2023-02-09T20:03:25.923Z,39.17
2023-02-09T20:05:52.826Z,39.30
2023-02-09T20:08:20.397Z,39.20
2023-02-09T20:10:48.012Z,37.80
2023-02-09T20:13:15.693Z,36.87
2023-02-09T20:15:43.721Z,37.40
2023-02-09T20:18:12.124Z,36.67
2023-02-09T20:20:41.440Z,36.27
2023-02-09T20:23:08.764Z,37.07
2023-02-09T20:25:43.052Z,37.63
2023-02-09T20:28:13.583Z,36.70
2023-02-09T20:30:42.197Z,37.43
2023-02-09T20:33:10.295Z,36.27
2023-02-09T20:35:44.612Z,35.03
2023-02-09T20:38:12.748Z,37.97
2023-02-09T20:40:43.536Z,36.13
2023-02-09T20:43:30.927Z,34.70
2023-02-09T20:46:16.180Z,39.23
2023-02-09T20:48:43.054Z,38.13
2023-02-09T20:51:09.878Z,36.97
2023-02-09T20:53:36.825Z,37.40
2023-02-09T20:56:03.804Z,37.40
2023-02-09T20:58:35.569Z,39.47
2023-02-09T21:01:05.769Z,37.90
2023-02-09T21:03:32.822Z,42.00
2023-02-09T21:06:02.076Z,37.37
2023-02-09T21:08:28.867Z,39.47
2023-02-09T21:10:57.678Z,38.40
2023-02-09T21:13:25.957Z,37.80
2023-02-09T21:15:52.826Z,38.40
2023-02-09T21:18:21.464Z,38.10
2023-02-09T21:20:49.198Z,38.90
2023-02-09T21:23:17.173Z,38.23
2023-02-09T21:25:44.339Z,37.80
2023-02-09T21:28:12.165Z,39.43
2023-02-09T21:30:44.082Z,37.37
2023-02-09T21:33:10.992Z,41.07
2023-02-09T21:35:41.168Z,50.43
2023-02-09T21:38:07.971Z,39.90
2023-02-09T21:40:34.790Z,45.83
2023-02-09T21:43:01.634Z,43.83
2023-02-09T21:45:28.548Z,40.20
2023-02-09T21:47:55.561Z,40.83
2023-02-09T21:50:22.404Z,40.23
2023-02-09T21:52:49.856Z,38.73
2023-02-09T21:55:17.476Z,39.30
2023-02-09T21:57:44.263Z,39.00
2023-02-09T22:00:12.426Z,41.60
2023-02-09T22:02:39.518Z,41.13
2023-02-09T22:05:07.135Z,38.63
2023-02-09T22:07:35.673Z,44.53
2023-02-09T22:10:03.125Z,38.27
2023-02-09T22:12:29.985Z,41.67
2023-02-09T22:14:56.806Z,39.37
2023-02-09T22:17:23.551Z,40.43
2023-02-09T22:19:50.414Z,38.83
2023-02-09T22:22:17.271Z,38.73
2023-02-09T22:24:44.048Z,39.90
2023-02-09T22:27:10.833Z,42.07
2023-02-09T22:29:37.727Z,41.40
2023-02-09T22:32:04.624Z,38.90
2023-02-09T22:34:31.362Z,41.83
2023-02-09T22:36:58.171Z,42.23
2023-02-09T22:39:24.986Z,38.37
2023-02-09T22:41:54.299Z,40.23
2023-02-09T22:44:21.108Z,39.37
2023-02-09T22:46:47.945Z,40.63
2023-02-09T22:49:18.147Z,42.17
2023-02-09T22:51:46.423Z,37.70
2023-02-09T22:54:15.059Z,40.97
2023-02-09T22:56:42.364Z,38.40
2023-02-09T22:59:11.530Z,39.70
2023-02-09T23:01:38.799Z,38.73
2023-02-09T23:04:05.729Z,39.10
2023-02-09T23:06:32.541Z,41.70
2023-02-09T23:09:01.652Z,41.63
2023-02-09T23:11:30.419Z,43.00
2023-02-09T23:14:11.917Z,42.30
2023-02-09T23:16:40.777Z,42.03
2023-02-09T23:19:11.027Z,40.30
2023-02-09T23:21:40.071Z,41.00
2023-02-09T23:24:07.625Z,43.97
2023-02-09T23:26:35.067Z,41.90
2023-02-09T23:29:05.446Z,40.03
2023-02-09T23:31:32.782Z,42.70
2023-02-09T23:33:59.632Z,42.10
2023-02-09T23:36:29.053Z,43.07
2023-02-09T23:38:58.094Z,43.40
2023-02-09T23:41:26.144Z,41.93
2023-02-09T23:43:53.670Z,42.70
2023-02-09T23:46:23.832Z,42.00
2023-02-09T23:48:53.264Z,41.00
2023-02-09T23:51:28.414Z,42.73
2023-02-09T23:53:56.725Z,40.67
2023-02-09T23:56:24.312Z,40.60
2023-02-09T23:58:53.336Z,41.07
